KDEH/DEH METAR and TAF weather

Enter ICAO airport designator
Station Type Date Time Source
KDEH METAR 2019/02/21 15:55 UTC NOAA

KDEH 211555Z AUTO VRB06KT 9SM CLR M11/M13 A3013 RMK AO2


Station Type Date Time Source
KDEH Decoded METAR 2019/02/21 15:55 UTC NOAA

Decorah, IA, United States (KDEH) 43-17N 091-44W
Feb 21, 2019 - 10:55 AM EST / 2019.02.21 1555 UTC
Wind: Variable at 7 MPH (6 KT):0
Visibility: 9 mile(s):0
Sky conditions: clear
Temperature: 12 F (-11 C)
Windchill: 1 F (-17 C):1
Dew Point: 8 F (-13 C)
Relative Humidity: 85%
Pressure (altimeter): 30.13 in. Hg (1020 hPa)
ob: KDEH 211555Z AUTO VRB06KT 9SM CLR M11/M13 A3013 RMK AO2
cycle: 16

Station Type Date Time Source
KDEH TAF UTC NOAA

Error!


Example: see airport list